Time;durP1;ratioP1;P1;durP2;ratioP2;P2;SDS_P1;SDS_P2;PMS_P1;PMS_P2;Temp;Humidity;BMP_temperature;BMP_pressure;BME280_temperature;BME280_humidity;BME280_pressure;Samples;Min_cycle;Max_cycle;Signal;HPM_P1;HPM_P2
2024/02/01 00:01:53;;;;;;;23.38;9.77;;;10.40;93.90;;;;;;5041913;28;20019;-77
2024/02/01 00:04:18;;;;;;;17.48;9.23;;;10.30;94.10;;;;;;5035017;28;20064;-76
2024/02/01 00:06:50;;;;;;;22.20;9.55;;;10.30;94.40;;;;;;5036238;28;20029;-76
2024/02/01 00:09:16;;;;;;;22.88;11.73;;;10.30;94.90;;;;;;5036718;28;20033;-76
2024/02/01 00:11:42;;;;;;;23.70;9.23;;;10.30;95.20;;;;;;5029009;28;20361;-76
2024/02/01 00:14:07;;;;;;;21.45;10.60;;;10.40;95.50;;;;;;5021936;28;20112;-76
2024/02/01 00:16:33;;;;;;;26.85;11.00;;;10.40;95.80;;;;;;5036800;28;20025;-75
2024/02/01 00:18:59;;;;;;;23.98;10.77;;;10.30;96.00;;;;;;5033951;28;20034;-75
2024/02/01 00:21:24;;;;;;;22.98;10.68;;;10.30;96.20;;;;;;5043249;28;20104;-76
2024/02/01 00:23:50;;;;;;;24.02;11.15;;;10.30;96.40;;;;;;5040312;28;20486;-76
2024/02/01 00:26:16;;;;;;;25.60;10.70;;;10.30;96.60;;;;;;5033014;28;20029;-75
2024/02/01 00:28:42;;;;;;;23.13;11.20;;;10.30;96.80;;;;;;5035133;28;20028;-75
2024/02/01 00:31:08;;;;;;;23.30;11.15;;;10.30;96.90;;;;;;5038657;28;20021;-76
2024/02/01 00:33:33;;;;;;;21.08;10.25;;;10.30;97.00;;;;;;5044299;28;20037;-76
2024/02/01 00:35:59;;;;;;;22.45;10.85;;;10.30;97.10;;;;;;5037358;28;20147;-75
2024/02/01 00:38:25;;;;;;;25.98;11.73;;;10.30;97.10;;;;;;5039361;28;20031;-76
2024/02/01 00:40:51;;;;;;;28.40;12.00;;;10.30;97.20;;;;;;5033806;28;20566;-75
2024/02/01 00:43:17;;;;;;;26.25;11.25;;;10.30;97.40;;;;;;5038791;28;20203;-74
2024/02/01 00:45:42;;;;;;;26.98;11.70;;;10.30;97.40;;;;;;5029696;28;20029;-74
2024/02/01 00:48:08;;;;;;;26.75;11.38;;;10.30;97.60;;;;;;5044232;28;20108;-74
2024/02/01 00:50:34;;;;;;;27.80;11.75;;;10.30;97.70;;;;;;5032924;28;20060;-75
2024/02/01 00:52:59;;;;;;;29.88;12.07;;;10.30;97.70;;;;;;5039446;28;20021;-76
2024/02/01 00:55:25;;;;;;;30.02;11.88;;;10.30;97.80;;;;;;5025155;28;20074;-76
2024/02/01 00:57:51;;;;;;;30.33;11.35;;;10.30;97.90;;;;;;5022220;28;20036;-76
2024/02/01 01:00:17;;;;;;;30.60;12.75;;;10.30;98.00;;;;;;5030515;28;20029;-76
2024/02/01 01:02:43;;;;;;;31.27;11.52;;;10.30;98.10;;;;;;5031270;28;20041;-77
2024/02/01 01:05:08;;;;;;;28.08;11.98;;;10.30;98.20;;;;;;5030974;28;20029;-75
2024/02/01 01:07:34;;;;;;;31.85;13.48;;;10.40;98.20;;;;;;5046702;28;20053;-77
2024/02/01 01:10:00;;;;;;;32.78;13.75;;;10.40;98.20;;;;;;5055323;28;20043;-77
2024/02/01 01:12:26;;;;;;;33.10;13.70;;;10.40;98.30;;;;;;5047393;28;20025;-73
2024/02/01 01:14:51;;;;;;;35.35;14.63;;;10.40;98.30;;;;;;5044807;28;20021;-74
2024/02/01 01:17:17;;;;;;;28.85;14.45;;;10.40;98.40;;;;;;5042258;28;20116;-77
2024/02/01 01:19:43;;;;;;;33.35;14.00;;;10.40;98.60;;;;;;5037849;28;20134;-74
2024/02/01 01:22:09;;;;;;;31.20;14.30;;;10.40;98.70;;;;;;5036791;28;20461;-75
2024/02/01 01:24:34;;;;;;;29.77;13.32;;;10.40;98.70;;;;;;5028765;28;20095;-77
2024/02/01 01:27:00;;;;;;;30.85;12.50;;;10.40;98.80;;;;;;5035867;28;20029;-75
2024/02/01 01:29:26;;;;;;;27.95;13.25;;;10.40;98.80;;;;;;5030398;28;20446;-75
2024/02/01 01:31:51;;;;;;;28.27;12.55;;;10.40;98.80;;;;;;5032560;28;20528;-76
2024/02/01 01:34:17;;;;;;;26.83;13.18;;;10.40;98.90;;;;;;5035754;28;20060;-75
2024/02/01 01:36:43;;;;;;;30.10;13.18;;;10.40;98.90;;;;;;5025661;28;20146;-77
2024/02/01 01:39:12;;;;;;;25.95;12.65;;;10.40;98.90;;;;;;5034471;28;20126;-76
2024/02/01 01:41:45;;;;;;;24.85;11.52;;;10.40;99.10;;;;;;5030005;28;20033;-75
2024/02/01 01:44:11;;;;;;;23.52;11.05;;;10.40;99.20;;;;;;5032866;28;20234;-76
2024/02/01 01:46:37;;;;;;;26.20;11.30;;;10.40;99.20;;;;;;5033358;28;20100;-75
2024/02/01 01:49:04;;;;;;;24.65;12.65;;;10.40;99.20;;;;;;5030153;28;20059;-76
2024/02/01 01:51:32;;;;;;;28.30;13.25;;;10.50;99.30;;;;;;5033065;28;20016;-75
2024/02/01 01:53:58;;;;;;;31.13;15.38;;;10.40;99.20;;;;;;5040774;28;20028;-76
2024/02/01 01:56:24;;;;;;;28.17;13.65;;;10.50;99.20;;;;;;5028733;28;20151;-78
2024/02/01 01:58:52;;;;;;;28.20;13.48;;;10.40;99.20;;;;;;5030909;28;20071;-75
2024/02/01 02:01:18;;;;;;;27.73;13.20;;;10.40;99.30;;;;;;5036597;28;20105;-76
2024/02/01 02:03:47;;;;;;;22.75;12.48;;;10.40;99.30;;;;;;5036670;28;20537;-76
2024/02/01 02:06:13;;;;;;;23.00;12.45;;;10.50;99.30;;;;;;5027751;28;20044;-75
2024/02/01 02:08:39;;;;;;;18.38;12.05;;;10.50;99.30;;;;;;5025865;28;20033;-76
2024/02/01 02:11:04;;;;;;;19.10;11.90;;;10.50;99.40;;;;;;5029793;28;20024;-77
2024/02/01 02:13:30;;;;;;;22.02;11.57;;;10.40;99.40;;;;;;5043665;28;20052;-76
2024/02/01 02:15:56;;;;;;;22.30;12.05;;;10.50;99.40;;;;;;5021252;28;20045;-76
2024/02/01 02:18:22;;;;;;;21.27;11.32;;;10.50;99.50;;;;;;5042121;28;20358;-75
2024/02/01 02:20:50;;;;;;;23.65;11.10;;;10.40;99.40;;;;;;5028929;28;20486;-75
2024/02/01 02:23:17;;;;;;;19.23;11.13;;;10.50;99.50;;;;;;5024670;28;20509;-76
2024/02/01 02:25:42;;;;;;;21.02;11.73;;;10.40;99.50;;;;;;5032513;28;20041;-76
2024/02/01 02:28:08;;;;;;;23.05;12.38;;;10.50;99.60;;;;;;5030176;28;20101;-76
2024/02/01 02:30:36;;;;;;;20.30;11.95;;;10.40;99.60;;;;;;5029926;28;20048;-76
2024/02/01 02:33:02;;;;;;;22.13;12.70;;;10.50;99.70;;;;;;5032070;28;20440;-77
2024/02/01 02:35:28;;;;;;;20.08;12.25;;;10.50;99.60;;;;;;5031845;28;20092;-75
2024/02/01 02:37:54;;;;;;;20.65;14.38;;;10.50;99.60;;;;;;5029951;28;20032;-76
2024/02/01 02:40:21;;;;;;;22.83;13.82;;;10.50;99.60;;;;;;5027912;28;20127;-77
2024/02/01 02:42:47;;;;;;;24.50;15.02;;;10.50;99.70;;;;;;5032901;28;20017;-76
2024/02/01 02:45:13;;;;;;;25.42;15.43;;;10.40;99.70;;;;;;5025593;28;20041;-76
2024/02/01 02:47:39;;;;;;;23.67;15.85;;;10.50;99.80;;;;;;5028863;28;20267;-76
2024/02/01 02:50:09;;;;;;;24.48;16.05;;;10.50;99.80;;;;;;5027608;28;20401;-77
2024/02/01 02:52:36;;;;;;;28.58;18.00;;;10.50;99.80;;;;;;5031497;28;20433;-75
2024/02/01 02:55:03;;;;;;;29.67;19.77;;;10.50;99.80;;;;;;5030381;28;20033;-76
2024/02/01 02:57:29;;;;;;;29.85;19.52;;;10.50;99.80;;;;;;5027070;28;20040;-77
2024/02/01 02:59:55;;;;;;;38.00;21.52;;;10.50;99.80;;;;;;5025751;28;20027;-76
2024/02/01 03:02:20;;;;;;;35.92;23.65;;;10.50;99.80;;;;;;5033697;28;20029;-76
2024/02/01 03:04:46;;;;;;;38.78;23.40;;;10.50;99.80;;;;;;5026807;28;20091;-77
2024/02/01 03:07:12;;;;;;;34.95;23.65;;;10.50;99.80;;;;;;5021561;28;20127;-77
2024/02/01 03:09:38;;;;;;;38.45;24.52;;;10.50;99.80;;;;;;5030567;28;20556;-76
2024/02/01 03:12:09;;;;;;;37.30;23.27;;;10.50;99.80;;;;;;5027357;28;20053;-76
2024/02/01 03:14:39;;;;;;;40.33;25.42;;;10.50;99.80;;;;;;5025092;28;20358;-76
2024/02/01 03:17:06;;;;;;;40.85;25.52;;;10.50;99.80;;;;;;5031234;28;20017;-76
2024/02/01 03:19:42;;;;;;;42.78;25.40;;;10.50;99.80;;;;;;5037569;28;20574;-75
2024/02/01 03:22:08;;;;;;;46.25;27.13;;;10.50;99.80;;;;;;5024937;28;20567;-76
2024/02/01 03:24:34;;;;;;;49.28;27.48;;;10.50;99.80;;;;;;5029862;28;20033;-76
2024/02/01 03:27:00;;;;;;;45.75;27.55;;;10.50;99.70;;;;;;5023089;28;20064;-77
2024/02/01 03:29:28;;;;;;;50.08;27.00;;;10.50;99.80;;;;;;5027867;28;20033;-76
2024/02/01 03:31:54;;;;;;;48.13;27.48;;;10.50;99.80;;;;;;5032172;28;20017;-76
2024/02/01 03:34:20;;;;;;;47.40;28.13;;;10.50;99.80;;;;;;5034521;28;20550;-77
2024/02/01 03:36:52;;;;;;;45.47;26.48;;;10.50;99.70;;;;;;5027189;28;20116;-76
2024/02/01 03:39:24;;;;;;;46.42;29.25;;;10.50;99.80;;;;;;5027033;28;20120;-76
2024/02/01 03:41:51;;;;;;;47.33;27.50;;;10.50;99.70;;;;;;5035702;28;20818;-75
2024/02/01 03:44:20;;;;;;;50.05;29.00;;;10.50;99.70;;;;;;5032257;28;20116;-76
2024/02/01 03:46:46;;;;;;;53.88;30.48;;;10.50;99.70;;;;;;5032765;28;20024;-76
2024/02/01 03:49:12;;;;;;;53.63;30.63;;;10.50;99.80;;;;;;5032067;28;20040;-77
2024/02/01 03:51:38;;;;;;;53.17;31.55;;;10.50;99.80;;;;;;5035532;28;20028;-76
2024/02/01 03:54:08;;;;;;;54.92;30.30;;;10.50;99.80;;;;;;5032993;28;20365;-76
2024/02/01 03:56:37;;;;;;;55.25;30.77;;;10.50;99.70;;;;;;5040830;28;20529;-75
2024/02/01 03:59:03;;;;;;;53.78;30.48;;;10.50;99.70;;;;;;5036863;28;20409;-78
2024/02/01 04:01:30;;;;;;;54.58;29.98;;;10.50;99.70;;;;;;5037007;28;20017;-75
2024/02/01 04:03:56;;;;;;;52.75;29.15;;;10.50;99.70;;;;;;5038265;28;20032;-75
2024/02/01 04:06:23;;;;;;;45.83;28.23;;;10.40;99.70;;;;;;5038440;28;22059;-77
2024/02/01 04:08:49;;;;;;;55.97;27.13;;;10.40;99.60;;;;;;5044761;28;20407;-77
2024/02/01 04:11:15;;;;;;;48.70;25.20;;;10.40;99.60;;;;;;5041199;28;20027;-77
2024/02/01 04:13:41;;;;;;;45.47;22.92;;;10.40;99.50;;;;;;5033881;28;20122;-76
2024/02/01 04:16:07;;;;;;;47.67;21.73;;;10.40;99.50;;;;;;5032917;28;20055;-76
2024/02/01 04:18:33;;;;;;;41.35;18.98;;;10.40;99.40;;;;;;5032694;28;20071;-76
2024/02/01 04:21:00;;;;;;;42.28;20.52;;;10.40;99.30;;;;;;5026874;28;20029;-77
2024/02/01 04:23:25;;;;;;;37.92;18.13;;;10.40;99.20;;;;;;5043783;28;20097;-78
2024/02/01 04:25:52;;;;;;;38.28;18.95;;;10.40;99.20;;;;;;5048087;28;20159;-77
2024/02/01 04:28:18;;;;;;;40.80;18.90;;;10.40;99.20;;;;;;5055820;28;20063;-77
2024/02/01 04:30:51;;;;;;;38.33;18.65;;;10.40;99.20;;;;;;5062563;28;20049;-75
2024/02/01 04:33:20;;;;;;;46.47;19.30;;;10.40;99.10;;;;;;5054046;28;20019;-75
2024/02/01 04:35:47;;;;;;;36.65;16.10;;;10.40;99.10;;;;;;5036188;28;20045;-75
2024/02/01 04:38:13;;;;;;;34.88;15.63;;;10.40;99.00;;;;;;5042188;28;20046;-75
2024/02/01 04:40:39;;;;;;;33.88;14.43;;;10.40;99.00;;;;;;5033121;28;20049;-75
2024/02/01 04:43:05;;;;;;;37.03;14.43;;;10.40;98.90;;;;;;5038570;28;20029;-75
2024/02/01 04:45:32;;;;;;;32.13;14.70;;;10.40;98.80;;;;;;5034033;28;20037;-76
2024/02/01 04:47:58;;;;;;;30.23;14.43;;;10.40;98.80;;;;;;5037268;28;20017;-75
2024/02/01 04:50:23;;;;;;;36.15;15.90;;;10.40;98.60;;;;;;5027307;28;20550;-76
2024/02/01 04:52:49;;;;;;;31.42;15.68;;;10.40;98.30;;;;;;5043605;28;20021;-76
2024/02/01 04:55:15;;;;;;;31.30;15.73;;;10.40;98.20;;;;;;5033615;28;20539;-77
2024/02/01 04:57:41;;;;;;;32.53;16.08;;;10.30;98.10;;;;;;5043310;28;20019;-77
2024/02/01 05:00:14;;;;;;;44.33;18.38;;;10.30;97.90;;;;;;5032035;28;20063;-76
2024/02/01 05:02:41;;;;;;;32.97;15.63;;;10.30;97.90;;;;;;5047756;28;20059;-76
2024/02/01 05:05:12;;;;;;;24.20;8.75;;;10.10;97.30;;;;;;5053774;28;20090;-76
2024/02/01 05:07:37;;;;;;;13.63;4.15;;;9.80;95.50;;;;;;5047004;28;20373;-76
2024/02/01 05:10:04;;;;;;;16.40;4.43;;;9.30;92.00;;;;;;5035427;28;20020;-75
2024/02/01 05:12:30;;;;;;;13.98;3.53;;;9.10;90.30;;;;;;5041906;28;20021;-76
2024/02/01 05:14:55;;;;;;;13.57;3.42;;;9.00;88.20;;;;;;5031050;28;20071;-75
2024/02/01 05:17:21;;;;;;;15.45;3.10;;;8.80;87.50;;;;;;5030053;28;20040;-74
2024/02/01 05:19:47;;;;;;;13.90;4.20;;;8.80;87.90;;;;;;5032971;28;20038;-75
2024/02/01 05:22:13;;;;;;;12.40;3.40;;;8.80;87.60;;;;;;5036214;28;20437;-75
2024/02/01 05:24:39;;;;;;;13.55;3.70;;;8.80;88.30;;;;;;5035427;28;20127;-76
2024/02/01 05:27:07;;;;;;;20.42;3.47;;;8.80;87.90;;;;;;5041600;28;20116;-75
2024/02/01 05:29:35;;;;;;;19.08;4.00;;;8.80;87.50;;;;;;5035530;28;20383;-76
2024/02/01 05:32:05;;;;;;;13.75;3.60;;;8.70;87.50;;;;;;5032968;28;20619;-75
2024/02/01 05:34:33;;;;;;;18.65;3.70;;;8.70;87.80;;;;;;5031256;28;20038;-74
2024/02/01 05:36:59;;;;;;;18.20;4.00;;;8.60;87.40;;;;;;5033786;28;20041;-75
2024/02/01 05:39:24;;;;;;;18.92;3.88;;;8.60;87.70;;;;;;5034957;28;20136;-74
2024/02/01 05:41:58;;;;;;;15.38;3.42;;;8.60;87.80;;;;;;5029364;28;20542;-74
2024/02/01 05:44:28;;;;;;;18.80;3.30;;;8.50;87.40;;;;;;5036290;28;20272;-75
2024/02/01 05:46:55;;;;;;;16.00;4.32;;;8.50;87.30;;;;;;5040045;28;20025;-74
2024/02/01 05:49:33;;;;;;;20.98;3.80;;;8.50;87.60;;;;;;5034918;28;20066;-75
2024/02/01 05:52:03;;;;;;;14.77;3.67;;;8.50;87.90;;;;;;5031322;28;20108;-75
2024/02/01 05:54:32;;;;;;;14.45;3.30;;;8.40;87.80;;;;;;5036180;28;20108;-75
2024/02/01 05:56:57;;;;;;;24.33;4.75;;;8.40;87.60;;;;;;5031496;28;20033;-74
2024/02/01 05:59:23;;;;;;;19.92;3.80;;;8.40;87.80;;;;;;5031097;28;20037;-74
2024/02/01 06:01:49;;;;;;;13.98;3.42;;;8.30;88.10;;;;;;5031939;28;20020;-75
2024/02/01 06:04:15;;;;;;;18.33;3.92;;;8.30;88.10;;;;;;5033214;28;20479;-75
2024/02/01 06:06:46;;;;;;;21.13;5.00;;;8.30;88.30;;;;;;5025915;28;20021;-75
2024/02/01 06:09:12;;;;;;;15.10;3.78;;;8.30;88.20;;;;;;5034618;28;20033;-76
2024/02/01 06:11:42;;;;;;;17.60;3.55;;;8.20;88.20;;;;;;5039081;28;20033;-74
2024/02/01 06:14:08;;;;;;;17.40;4.38;;;8.30;88.30;;;;;;5029925;28;20349;-77
2024/02/01 06:16:34;;;;;;;13.18;3.00;;;8.20;88.50;;;;;;5029520;28;20120;-77
2024/02/01 06:19:00;;;;;;;19.00;4.22;;;8.20;88.70;;;;;;5034115;28;20074;-77
2024/02/01 06:21:26;;;;;;;16.50;3.75;;;8.10;88.90;;;;;;5035754;28;20453;-77
2024/02/01 06:23:52;;;;;;;15.07;3.25;;;8.10;89.20;;;;;;5037092;28;20449;-76
2024/02/01 06:26:25;;;;;;;15.13;3.90;;;8.10;89.10;;;;;;5035296;28;20048;-76
2024/02/01 06:28:57;;;;;;;18.48;4.18;;;8.10;89.40;;;;;;5024068;28;20102;-77
2024/02/01 06:31:24;;;;;;;14.30;3.67;;;8.10;89.50;;;;;;5032739;28;20028;-77
2024/02/01 06:33:59;;;;;;;18.70;5.13;;;8.10;89.50;;;;;;5031022;28;20009;-77
2024/02/01 06:36:34;;;;;;;15.63;5.00;;;8.20;89.70;;;;;;5032610;28;20059;-77
2024/02/01 06:41:29;;;;;;;21.70;5.57;;;8.20;90.00;;;;;;5028187;28;20029;-76
2024/02/01 06:46:49;;;;;;;22.20;5.25;;;8.20;90.30;;;;;;5037782;28;20045;-76
2024/02/01 06:49:28;;;;;;;22.77;5.97;;;8.10;90.50;;;;;;5032612;28;20517;-76
2024/02/01 06:52:13;;;;;;;13.63;3.72;;;8.00;90.50;;;;;;5024971;28;20679;-76
2024/02/01 06:54:50;;;;;;;22.00;5.28;;;7.90;90.40;;;;;;5025749;28;20037;-76
2024/02/01 06:57:22;;;;;;;18.27;5.13;;;7.80;90.20;;;;;;5035601;28;20025;-76
2024/02/01 07:02:35;;;;;;;16.60;4.68;;;7.60;90.50;;;;;;5034046;28;20111;-76
2024/02/01 07:05:11;;;;;;;14.45;3.90;;;7.50;90.70;;;;;;5030049;28;20431;-74
2024/02/01 07:07:43;;;;;;;20.27;4.35;;;7.50;90.90;;;;;;5026812;28;20032;-74
2024/02/01 07:10:20;;;;;;;17.73;4.38;;;7.40;91.10;;;;;;5031362;28;20354;-75
2024/02/01 07:15:31;;;;;;;15.05;4.05;;;7.30;91.50;;;;;;5025708;28;20067;-74
2024/02/01 07:18:05;;;;;;;17.77;4.22;;;7.30;91.50;;;;;;5032505;28;20427;-74
2024/02/01 07:20:50;;;;;;;22.77;5.15;;;7.30;91.50;;;;;;5026389;28;20090;-74
2024/02/01 07:25:48;;;;;;;16.30;4.78;;;7.20;91.60;;;;;;5032236;28;20070;-74
2024/02/01 07:58:32;;;;;;;15.70;6.40;;;6.70;92.90;;;;;;5026970;28;20481;-73
2024/02/01 08:01:01;;;;;;;20.15;6.28;;;6.70;93.00;;;;;;5035922;28;20309;-74
2024/02/01 08:08:39;;;;;;;17.65;5.80;;;6.70;93.10;;;;;;5030033;28;20116;-74
2024/02/01 08:11:05;;;;;;;19.40;6.00;;;6.60;93.20;;;;;;5031545;28;20029;-74
2024/02/01 08:13:31;;;;;;;21.05;10.18;;;6.60;93.30;;;;;;5031750;28;20335;-76
2024/02/01 08:15:58;;;;;;;20.25;10.15;;;6.60;93.40;;;;;;5027171;28;20056;-73
2024/02/01 08:18:34;;;;;;;22.42;10.20;;;6.60;93.30;;;;;;5031968;28;20120;-74
2024/02/01 08:21:01;;;;;;;22.52;11.90;;;6.70;93.20;;;;;;5029786;28;20025;-74
2024/02/01 08:23:26;;;;;;;26.42;11.88;;;6.80;93.30;;;;;;5029262;28;20036;-74
2024/02/01 08:25:52;;;;;;;25.65;10.15;;;6.80;93.20;;;;;;5029309;28;20088;-74
2024/02/01 08:28:18;;;;;;;20.83;10.18;;;6.80;93.20;;;;;;5031766;28;20322;-74
2024/02/01 08:30:45;;;;;;;21.27;9.93;;;6.90;93.30;;;;;;5029788;28;20445;-74
2024/02/01 08:33:20;;;;;;;15.70;8.00;;;7.00;93.30;;;;;;5033865;28;20017;-74
2024/02/01 08:35:46;;;;;;;20.33;8.35;;;7.00;93.40;;;;;;5031358;28;20045;-74
2024/02/01 08:38:13;;;;;;;23.77;8.73;;;7.10;93.30;;;;;;5030687;28;23316;-74
2024/02/01 08:40:42;;;;;;;19.83;8.10;;;7.10;93.20;;;;;;5026985;28;20043;-74
2024/02/01 08:43:10;;;;;;;21.00;7.72;;;7.20;93.00;;;;;;5035930;28;20028;-73
2024/02/01 08:45:40;;;;;;;19.63;7.13;;;7.30;93.00;;;;;;5021040;28;20033;-73
2024/02/01 08:48:08;;;;;;;20.70;7.78;;;7.40;93.00;;;;;;5029904;28;20094;-73
2024/02/01 08:50:49;;;;;;;17.92;6.30;;;7.50;93.00;;;;;;5030377;28;20045;-74
2024/02/01 08:53:18;;;;;;;18.17;5.82;;;7.60;93.00;;;;;;5034100;28;20366;-73
2024/02/01 08:55:45;;;;;;;23.23;7.25;;;7.70;92.50;;;;;;5019097;28;20113;-73
2024/02/01 08:58:12;;;;;;;17.10;6.43;;;7.80;92.20;;;;;;5021275;28;20490;-73
2024/02/01 09:00:47;;;;;;;31.08;8.07;;;7.90;92.10;;;;;;5028591;28;20037;-74
2024/02/01 09:03:16;;;;;;;19.70;7.80;;;7.90;91.40;;;;;;5036111;28;20065;-74
2024/02/01 09:05:45;;;;;;;26.88;12.90;;;8.00;91.50;;;;;;5022139;28;20037;-73
2024/02/01 09:08:12;;;;;;;25.95;9.07;;;8.10;91.20;;;;;;5015261;28;20044;-75
2024/02/01 09:10:50;;;;;;;21.60;6.40;;;8.10;91.20;;;;;;5024266;27;20151;-73
2024/02/01 09:13:19;;;;;;;14.80;5.32;;;8.20;91.20;;;;;;5028155;28;20496;-73
2024/02/01 09:15:46;;;;;;;18.80;6.30;;;8.20;91.00;;;;;;5026517;28;20076;-74
2024/02/01 09:18:12;;;;;;;16.90;5.05;;;8.20;90.80;;;;;;5022354;28;20032;-73
2024/02/01 09:20:38;;;;;;;19.58;5.30;;;8.20;90.60;;;;;;5023656;28;20128;-74
2024/02/01 09:23:06;;;;;;;21.80;5.85;;;8.30;90.60;;;;;;5032249;28;20178;-72
2024/02/01 09:25:31;;;;;;;22.95;6.47;;;8.30;90.40;;;;;;5025951;28;20051;-74
2024/02/01 09:27:58;;;;;;;21.88;6.60;;;8.40;90.40;;;;;;5035447;28;20610;-73
2024/02/01 09:30:26;;;;;;;21.13;4.97;;;8.50;90.30;;;;;;5024690;28;20405;-75
2024/02/01 09:32:56;;;;;;;20.90;5.47;;;8.60;89.80;;;;;;5033935;28;20020;-72
2024/02/01 09:35:23;;;;;;;21.75;5.82;;;8.70;90.10;;;;;;5031497;28;20075;-75
2024/02/01 09:37:53;;;;;;;24.02;5.60;;;8.80;89.80;;;;;;5027929;28;20018;-72
2024/02/01 09:40:23;;;;;;;26.98;5.25;;;8.80;89.50;;;;;;5026639;28;20055;-74
2024/02/01 09:42:50;;;;;;;23.60;5.72;;;8.90;88.80;;;;;;5038955;28;20069;-75
2024/02/01 09:45:20;;;;;;;24.25;6.03;;;8.90;88.50;;;;;;5031580;28;20025;-75
2024/02/01 09:47:47;;;;;;;23.95;6.38;;;8.80;88.40;;;;;;5031495;28;20021;-75
2024/02/01 09:50:15;;;;;;;43.47;9.52;;;8.70;88.10;;;;;;5030939;28;20029;-75
2024/02/01 09:52:43;;;;;;;31.58;7.88;;;8.60;87.90;;;;;;5040618;28;20075;-76
2024/02/01 09:55:16;;;;;;;34.40;8.90;;;8.60;87.60;;;;;;5026741;28;20494;-75
2024/02/01 09:57:46;;;;;;;27.10;6.05;;;8.60;87.70;;;;;;5024456;28;20441;-74
2024/02/01 10:00:14;;;;;;;25.05;7.38;;;8.60;87.50;;;;;;5031873;28;20040;-75
2024/02/01 10:02:47;;;;;;;23.60;6.05;;;8.60;87.30;;;;;;5028857;28;20022;-76
2024/02/01 10:05:13;;;;;;;22.55;5.60;;;8.60;87.10;;;;;;5034347;28;20059;-75
2024/02/01 10:07:39;;;;;;;20.60;5.20;;;8.70;87.00;;;;;;5037129;28;20017;-73
2024/02/01 10:10:06;;;;;;;30.83;6.53;;;8.80;86.90;;;;;;5032914;28;20029;-74
2024/02/01 10:12:34;;;;;;;29.05;5.97;;;8.60;86.30;;;;;;5034620;28;20480;-73
2024/02/01 10:15:10;;;;;;;28.63;6.13;;;8.70;86.50;;;;;;5026006;28;20029;-74
2024/02/01 10:17:45;;;;;;;25.33;6.15;;;8.80;86.30;;;;;;5028818;28;20306;-75
2024/02/01 10:20:34;;;;;;;24.33;5.72;;;8.80;86.40;;;;;;5029442;28;20363;-75
2024/02/01 10:23:08;;;;;;;29.48;6.00;;;8.80;86.20;;;;;;5032211;28;20025;-74
2024/02/01 10:25:42;;;;;;;26.40;5.88;;;8.80;85.40;;;;;;5033938;28;20029;-75
2024/02/01 10:28:34;;;;;;;25.97;5.33;;;8.90;85.40;;;;;;5020725;28;20060;-75
2024/02/01 10:31:00;;;;;;;33.55;6.65;;;9.10;85.80;;;;;;5032606;28;20033;-74
2024/02/01 10:33:31;;;;;;;28.42;5.57;;;9.00;85.00;;;;;;5034830;28;21759;-74
2024/02/01 10:36:08;;;;;;;21.67;5.20;;;9.20;85.30;;;;;;5021867;28;20053;-73
2024/02/01 10:38:35;;;;;;;28.33;5.90;;;9.10;85.00;;;;;;5030261;28;20377;-72
2024/02/01 10:41:16;;;;;;;27.00;5.25;;;9.00;84.60;;;;;;5031976;28;20518;-72
2024/02/01 10:43:44;;;;;;;28.40;7.32;;;9.10;84.60;;;;;;5028978;28;20044;-72
2024/02/01 10:46:15;;;;;;;23.85;4.97;;;9.10;84.40;;;;;;5029508;28;20109;-72
2024/02/01 10:48:57;;;;;;;29.65;5.78;;;9.00;84.30;;;;;;5039420;28;20944;-73
2024/02/01 10:51:24;;;;;;;29.95;6.25;;;9.10;83.80;;;;;;5033773;28;20028;-73
2024/02/01 10:53:51;;;;;;;22.67;5.05;;;9.10;83.60;;;;;;5035093;28;20578;-71
2024/02/01 10:56:18;;;;;;;32.88;6.45;;;9.20;84.10;;;;;;5022903;28;20377;-73
2024/02/01 10:58:52;;;;;;;24.38;6.68;;;9.30;83.40;;;;;;5026378;28;20128;-75
2024/02/01 11:01:24;;;;;;;26.17;5.38;;;9.30;83.00;;;;;;5028657;28;20021;-73
2024/02/01 11:03:58;;;;;;;28.83;5.47;;;9.40;82.60;;;;;;5034138;28;20029;-73
2024/02/01 11:06:25;;;;;;;31.77;6.17;;;9.60;82.60;;;;;;5034051;28;20033;-73
2024/02/01 11:08:52;;;;;;;24.17;5.43;;;9.60;82.20;;;;;;5038197;28;20114;-73
2024/02/01 11:11:20;;;;;;;22.60;5.47;;;9.60;82.50;;;;;;5034784;28;20029;-73
2024/02/01 11:14:06;;;;;;;30.65;7.03;;;9.80;82.30;;;;;;5033506;28;20056;-73
2024/02/01 11:16:40;;;;;;;27.38;7.22;;;9.90;81.60;;;;;;5034022;28;20362;-73
2024/02/01 11:19:17;;;;;;;22.85;5.53;;;9.90;81.60;;;;;;5034296;28;20152;-73
2024/02/01 11:21:48;;;;;;;30.00;6.55;;;9.90;81.80;;;;;;5020014;28;20751;-72
2024/02/01 11:24:21;;;;;;;24.08;4.70;;;10.10;81.30;;;;;;5024202;28;20040;-73
2024/02/01 11:26:47;;;;;;;22.98;5.35;;;10.00;79.90;;;;;;5015140;28;20064;-73
2024/02/01 11:29:21;;;;;;;28.00;5.47;;;10.10;79.70;;;;;;5036292;28;20041;-73
2024/02/01 11:31:47;;;;;;;26.83;5.55;;;10.10;79.30;;;;;;5030258;28;20079;-72
2024/02/01 11:34:14;;;;;;;29.27;5.85;;;10.10;79.60;;;;;;5023133;28;20044;-73
2024/02/01 11:36:43;;;;;;;28.25;6.45;;;10.30;79.40;;;;;;5032231;28;20127;-73
2024/02/01 11:39:11;;;;;;;22.77;6.13;;;10.30;79.10;;;;;;5033688;28;20132;-73
2024/02/01 11:41:37;;;;;;;21.02;5.55;;;10.30;78.10;;;;;;5027201;28;20028;-72
2024/02/01 11:44:11;;;;;;;26.10;6.45;;;10.40;78.00;;;;;;5023780;28;20037;-73
2024/02/01 11:46:37;;;;;;;25.35;5.53;;;10.30;78.60;;;;;;5032430;28;20024;-74
2024/02/01 11:49:03;;;;;;;21.50;5.60;;;10.20;79.10;;;;;;5026116;28;20037;-74
2024/02/01 11:51:29;;;;;;;25.73;5.25;;;10.30;78.70;;;;;;5022193;28;20028;-74
2024/02/01 11:53:55;;;;;;;24.15;5.45;;;10.20;78.10;;;;;;5027635;28;20111;-74
2024/02/01 11:56:21;;;;;;;24.35;6.10;;;10.30;77.90;;;;;;5035435;28;20025;-74
2024/02/01 11:58:48;;;;;;;22.30;5.78;;;10.30;78.40;;;;;;5029033;28;20425;-74
2024/02/01 12:01:14;;;;;;;22.50;5.47;;;10.40;78.40;;;;;;5037809;28;20033;-74
2024/02/01 12:03:48;;;;;;;27.00;5.60;;;10.20;77.30;;;;;;5022015;28;20635;-73
2024/02/01 12:06:17;;;;;;;20.52;6.18;;;10.30;77.60;;;;;;5029177;28;20033;-74
2024/02/01 12:08:44;;;;;;;27.98;6.07;;;10.20;78.50;;;;;;5037205;28;20053;-74
2024/02/01 12:11:10;;;;;;;23.13;5.38;;;10.30;79.00;;;;;;5029914;28;20026;-74
2024/02/01 12:13:37;;;;;;;21.77;5.15;;;10.20;78.60;;;;;;5031614;28;20276;-74
2024/02/01 12:16:04;;;;;;;30.73;7.70;;;10.20;78.50;;;;;;5034261;28;20029;-74
2024/02/01 12:18:31;;;;;;;23.98;5.80;;;10.30;77.20;;;;;;5037795;28;20025;-72
2024/02/01 12:20:57;;;;;;;21.30;5.55;;;10.40;77.70;;;;;;5037531;28;20048;-72
2024/02/01 12:23:25;;;;;;;24.92;4.68;;;10.50;77.10;;;;;;5035118;28;20111;-74
2024/02/01 12:25:53;;;;;;;22.80;5.60;;;10.50;77.20;;;;;;5038373;27;20079;-74
2024/02/01 12:28:19;;;;;;;23.13;5.05;;;10.50;77.00;;;;;;5036817;28;20024;-74
2024/02/01 12:30:45;;;;;;;26.55;6.53;;;10.50;77.70;;;;;;5037400;28;20448;-73
2024/02/01 12:33:12;;;;;;;20.33;5.57;;;10.50;76.50;;;;;;5017124;28;20622;-73
2024/02/01 12:35:44;;;;;;;21.60;5.32;;;10.60;77.30;;;;;;5036419;28;20064;-73
2024/02/01 12:38:11;;;;;;;21.58;5.45;;;10.50;76.50;;;;;;5026987;28;20526;-74
2024/02/01 12:40:36;;;;;;;20.15;5.30;;;10.40;76.10;;;;;;5037197;28;20045;-73
2024/02/01 12:43:04;;;;;;;23.20;5.78;;;10.50;76.40;;;;;;5043526;28;20037;-74
2024/02/01 12:45:31;;;;;;;19.92;5.05;;;10.60;76.50;;;;;;5036839;28;20149;-73
2024/02/01 12:47:56;;;;;;;23.42;4.72;;;10.60;76.80;;;;;;5031632;28;20021;-73
2024/02/01 12:50:22;;;;;;;23.30;5.18;;;10.60;75.50;;;;;;5042973;28;20045;-73
2024/02/01 12:52:49;;;;;;;39.08;12.48;;;10.60;75.10;;;;;;5032413;28;20028;-73
2024/02/01 12:55:18;;;;;;;26.83;7.75;;;10.70;75.00;;;;;;5028423;28;20094;-74
2024/02/01 12:57:43;;;;;;;21.35;6.43;;;10.60;74.70;;;;;;5029365;28;20068;-73
2024/02/01 13:00:12;;;;;;;27.35;7.30;;;10.60;75.10;;;;;;5028667;28;20793;-74
2024/02/01 13:02:39;;;;;;;20.20;4.85;;;10.70;75.80;;;;;;5036924;28;20099;-73
2024/02/01 13:05:09;;;;;;;30.23;8.50;;;10.60;75.40;;;;;;5047315;28;20037;-74
2024/02/01 13:07:36;;;;;;;21.83;5.57;;;10.70;75.00;;;;;;5033918;28;20029;-73
2024/02/01 13:10:07;;;;;;;24.67;8.10;;;10.60;73.20;;;;;;5028761;27;20055;-74
2024/02/01 13:12:33;;;;;;;34.33;7.82;;;10.60;72.90;;;;;;5028311;28;20036;-74
2024/02/01 13:15:00;;;;;;;31.13;9.25;;;10.70;74.30;;;;;;5026630;28;20038;-73
2024/02/01 13:17:27;;;;;;;29.38;6.93;;;10.70;74.90;;;;;;5028330;28;20041;-74
2024/02/01 13:19:55;;;;;;;21.30;5.50;;;10.80;76.20;;;;;;5028968;28;20182;-73
2024/02/01 13:22:21;;;;;;;24.63;6.97;;;10.80;76.60;;;;;;5030133;28;20025;-73
2024/02/01 13:24:47;;;;;;;19.25;4.78;;;10.70;76.10;;;;;;5032281;28;20033;-73
2024/02/01 13:27:13;;;;;;;19.35;4.90;;;10.80;76.40;;;;;;5030347;28;20041;-73
2024/02/01 13:29:40;;;;;;;19.73;4.88;;;10.70;74.50;;;;;;5029290;28;20025;-73